sensor_id;sensor_type;location;lat;lon;timestamp;temperature;humidity
22966;DHT22;11649;48.090;9.754;2023-04-06T00:00:53;2.40;99.90
22966;DHT22;11649;48.090;9.754;2023-04-06T00:03:20;2.40;99.90
22966;DHT22;11649;48.090;9.754;2023-04-06T00:05:47;2.40;99.90
22966;DHT22;11649;48.090;9.754;2023-04-06T00:08:14;2.40;99.90
22966;DHT22;11649;48.090;9.754;2023-04-06T00:10:42;2.40;99.90
22966;DHT22;11649;48.090;9.754;2023-04-06T00:13:08;2.40;99.90
22966;DHT22;11649;48.090;9.754;2023-04-06T00:15:35;2.40;99.90
22966;DHT22;11649;48.090;9.754;2023-04-06T00:18:02;2.40;99.90
22966;DHT22;11649;48.090;9.754;2023-04-06T00:20:30;2.40;99.90
22966;DHT22;11649;48.090;9.754;2023-04-06T00:22:56;2.50;99.90
22966;DHT22;11649;48.090;9.754;2023-04-06T00:25:23;2.50;99.90
22966;DHT22;11649;48.090;9.754;2023-04-06T00:27:50;2.40;99.90
22966;DHT22;11649;48.090;9.754;2023-04-06T00:30:17;2.30;99.90
22966;DHT22;11649;48.090;9.754;2023-04-06T00:32:44;2.20;99.90
22966;DHT22;11649;48.090;9.754;2023-04-06T00:35:11;2.30;99.90
22966;DHT22;11649;48.090;9.754;2023-04-06T00:37:38;2.30;99.90
22966;DHT22;11649;48.090;9.754;2023-04-06T00:40:05;2.40;99.90
22966;DHT22;11649;48.090;9.754;2023-04-06T00:42:32;2.40;99.90
22966;DHT22;11649;48.090;9.754;2023-04-06T00:45:00;2.30;99.90
22966;DHT22;11649;48.090;9.754;2023-04-06T00:47:28;2.40;99.90
22966;DHT22;11649;48.090;9.754;2023-04-06T00:49:55;2.30;99.90
22966;DHT22;11649;48.090;9.754;2023-04-06T00:52:22;2.30;99.90
22966;DHT22;11649;48.090;9.754;2023-04-06T00:54:50;2.30;99.90
22966;DHT22;11649;48.090;9.754;2023-04-06T00:57:17;2.20;99.90
22966;DHT22;11649;48.090;9.754;2023-04-06T00:59:45;2.00;99.90
22966;DHT22;11649;48.090;9.754;2023-04-06T01:02:12;2.00;99.90
22966;DHT22;11649;48.090;9.754;2023-04-06T01:04:39;2.00;99.90
22966;DHT22;11649;48.090;9.754;2023-04-06T01:07:06;2.10;99.90
22966;DHT22;11649;48.090;9.754;2023-04-06T01:09:33;2.20;99.90
22966;DHT22;11649;48.090;9.754;2023-04-06T01:12:00;2.10;99.90
22966;DHT22;11649;48.090;9.754;2023-04-06T01:14:27;2.10;99.90
22966;DHT22;11649;48.090;9.754;2023-04-06T01:16:54;2.00;99.90
22966;DHT22;11649;48.090;9.754;2023-04-06T01:19:22;2.00;99.90
22966;DHT22;11649;48.090;9.754;2023-04-06T01:21:48;2.00;99.90
22966;DHT22;11649;48.090;9.754;2023-04-06T01:24:17;2.00;99.90
22966;DHT22;11649;48.090;9.754;2023-04-06T01:26:45;2.00;99.90
22966;DHT22;11649;48.090;9.754;2023-04-06T01:29:12;2.00;99.90
22966;DHT22;11649;48.090;9.754;2023-04-06T01:31:39;2.00;99.90
22966;DHT22;11649;48.090;9.754;2023-04-06T01:34:06;2.00;99.90
22966;DHT22;11649;48.090;9.754;2023-04-06T01:36:33;2.00;99.90
22966;DHT22;11649;48.090;9.754;2023-04-06T01:39:00;2.00;99.90
22966;DHT22;11649;48.090;9.754;2023-04-06T01:41:27;2.00;99.90
22966;DHT22;11649;48.090;9.754;2023-04-06T01:43:53;2.00;99.90
22966;DHT22;11649;48.090;9.754;2023-04-06T01:46:21;1.90;99.90
22966;DHT22;11649;48.090;9.754;2023-04-06T01:48:48;1.70;99.90
22966;DHT22;11649;48.090;9.754;2023-04-06T01:51:15;1.70;99.90
22966;DHT22;11649;48.090;9.754;2023-04-06T01:53:42;1.50;99.90
22966;DHT22;11649;48.090;9.754;2023-04-06T01:56:10;1.60;99.90
22966;DHT22;11649;48.090;9.754;2023-04-06T01:58:36;1.60;99.90
22966;DHT22;11649;48.090;9.754;2023-04-06T02:01:03;1.70;99.90
22966;DHT22;11649;48.090;9.754;2023-04-06T02:03:30;1.80;99.90
22966;DHT22;11649;48.090;9.754;2023-04-06T02:05:58;1.80;99.90
22966;DHT22;11649;48.090;9.754;2023-04-06T02:08:24;1.80;99.90
22966;DHT22;11649;48.090;9.754;2023-04-06T02:10:51;1.80;99.90
22966;DHT22;11649;48.090;9.754;2023-04-06T02:13:18;1.80;99.90
22966;DHT22;11649;48.090;9.754;2023-04-06T02:15:48;1.80;99.90
22966;DHT22;11649;48.090;9.754;2023-04-06T02:18:14;1.70;99.90
22966;DHT22;11649;48.090;9.754;2023-04-06T02:20:44;1.50;99.30
22966;DHT22;11649;48.090;9.754;2023-04-06T02:23:11;1.50;99.90
22966;DHT22;11649;48.090;9.754;2023-04-06T02:25:38;1.50;99.90
22966;DHT22;11649;48.090;9.754;2023-04-06T02:28:04;1.60;99.90
22966;DHT22;11649;48.090;9.754;2023-04-06T02:30:31;1.60;99.90
22966;DHT22;11649;48.090;9.754;2023-04-06T02:33:00;1.60;99.90
22966;DHT22;11649;48.090;9.754;2023-04-06T02:35:28;1.50;99.90
22966;DHT22;11649;48.090;9.754;2023-04-06T02:37:55;1.50;99.90
22966;DHT22;11649;48.090;9.754;2023-04-06T02:40:22;1.50;99.90
22966;DHT22;11649;48.090;9.754;2023-04-06T02:42:49;1.40;99.90
22966;DHT22;11649;48.090;9.754;2023-04-06T02:45:16;1.40;99.90
22966;DHT22;11649;48.090;9.754;2023-04-06T02:47:43;1.40;99.90
22966;DHT22;11649;48.090;9.754;2023-04-06T02:50:09;1.40;99.90
22966;DHT22;11649;48.090;9.754;2023-04-06T02:52:36;1.50;99.90
22966;DHT22;11649;48.090;9.754;2023-04-06T02:55:03;1.40;99.90
22966;DHT22;11649;48.090;9.754;2023-04-06T02:57:30;1.50;99.90
22966;DHT22;11649;48.090;9.754;2023-04-06T02:59:57;1.40;99.90
22966;DHT22;11649;48.090;9.754;2023-04-06T03:02:24;1.30;99.90
22966;DHT22;11649;48.090;9.754;2023-04-06T03:04:51;1.30;99.90
22966;DHT22;11649;48.090;9.754;2023-04-06T03:07:17;1.20;99.90
22966;DHT22;11649;48.090;9.754;2023-04-06T03:09:44;1.20;99.90
22966;DHT22;11649;48.090;9.754;2023-04-06T03:12:11;1.30;99.90
22966;DHT22;11649;48.090;9.754;2023-04-06T03:14:38;1.30;99.90
22966;DHT22;11649;48.090;9.754;2023-04-06T03:17:05;1.40;99.90
22966;DHT22;11649;48.090;9.754;2023-04-06T03:19:31;1.30;99.90
22966;DHT22;11649;48.090;9.754;2023-04-06T03:21:58;1.30;99.90
22966;DHT22;11649;48.090;9.754;2023-04-06T03:24:25;1.30;99.90
22966;DHT22;11649;48.090;9.754;2023-04-06T03:26:51;1.30;99.90
22966;DHT22;11649;48.090;9.754;2023-04-06T03:29:18;1.30;99.90
22966;DHT22;11649;48.090;9.754;2023-04-06T03:31:45;1.40;99.90
22966;DHT22;11649;48.090;9.754;2023-04-06T03:34:12;1.30;99.90
22966;DHT22;11649;48.090;9.754;2023-04-06T03:36:38;1.30;99.90
22966;DHT22;11649;48.090;9.754;2023-04-06T03:39:05;1.30;99.90
22966;DHT22;11649;48.090;9.754;2023-04-06T03:41:32;1.20;99.90
22966;DHT22;11649;48.090;9.754;2023-04-06T03:43:59;1.20;99.90
22966;DHT22;11649;48.090;9.754;2023-04-06T03:46:26;1.20;99.90
22966;DHT22;11649;48.090;9.754;2023-04-06T03:48:52;1.30;99.90
22966;DHT22;11649;48.090;9.754;2023-04-06T03:51:19;1.20;99.90
22966;DHT22;11649;48.090;9.754;2023-04-06T03:53:46;1.20;99.90
22966;DHT22;11649;48.090;9.754;2023-04-06T03:56:13;1.10;99.90
22966;DHT22;11649;48.090;9.754;2023-04-06T03:58:39;1.10;99.90
22966;DHT22;11649;48.090;9.754;2023-04-06T04:01:06;1.10;99.90
22966;DHT22;11649;48.090;9.754;2023-04-06T04:03:33;1.10;99.90
22966;DHT22;11649;48.090;9.754;2023-04-06T04:06:00;1.00;99.90
22966;DHT22;11649;48.090;9.754;2023-04-06T04:08:27;1.00;99.90
22966;DHT22;11649;48.090;9.754;2023-04-06T04:10:53;1.00;99.90
22966;DHT22;11649;48.090;9.754;2023-04-06T04:13:20;1.00;99.90
22966;DHT22;11649;48.090;9.754;2023-04-06T04:15:47;1.00;99.90
22966;DHT22;11649;48.090;9.754;2023-04-06T04:18:14;1.00;99.90
22966;DHT22;11649;48.090;9.754;2023-04-06T04:20:41;1.00;99.90
22966;DHT22;11649;48.090;9.754;2023-04-06T04:23:08;1.00;99.90
22966;DHT22;11649;48.090;9.754;2023-04-06T04:25:34;1.00;99.90
22966;DHT22;11649;48.090;9.754;2023-04-06T04:28:02;1.00;99.90
22966;DHT22;11649;48.090;9.754;2023-04-06T04:30:29;0.90;99.90
22966;DHT22;11649;48.090;9.754;2023-04-06T04:32:55;0.90;99.90
22966;DHT22;11649;48.090;9.754;2023-04-06T04:35:22;1.00;99.90
22966;DHT22;11649;48.090;9.754;2023-04-06T04:37:49;1.00;99.90
22966;DHT22;11649;48.090;9.754;2023-04-06T04:40:16;1.00;99.90
22966;DHT22;11649;48.090;9.754;2023-04-06T04:42:43;1.00;99.90
22966;DHT22;11649;48.090;9.754;2023-04-06T04:45:10;0.90;99.90
22966;DHT22;11649;48.090;9.754;2023-04-06T04:47:38;0.90;99.90
22966;DHT22;11649;48.090;9.754;2023-04-06T04:50:05;0.90;99.90
22966;DHT22;11649;48.090;9.754;2023-04-06T04:52:32;1.00;99.90
22966;DHT22;11649;48.090;9.754;2023-04-06T04:54:58;1.00;99.90
22966;DHT22;11649;48.090;9.754;2023-04-06T04:57:25;1.00;99.90
22966;DHT22;11649;48.090;9.754;2023-04-06T04:59:52;1.00;99.90
22966;DHT22;11649;48.090;9.754;2023-04-06T05:02:20;1.00;99.90
22966;DHT22;11649;48.090;9.754;2023-04-06T05:04:46;0.90;99.90
22966;DHT22;11649;48.090;9.754;2023-04-06T05:07:13;0.90;99.90
22966;DHT22;11649;48.090;9.754;2023-04-06T05:09:41;0.80;99.90
22966;DHT22;11649;48.090;9.754;2023-04-06T05:12:09;0.80;99.90
22966;DHT22;11649;48.090;9.754;2023-04-06T05:14:36;0.80;99.90
22966;DHT22;11649;48.090;9.754;2023-04-06T05:17:03;0.80;99.90
22966;DHT22;11649;48.090;9.754;2023-04-06T05:19:30;0.90;99.90
22966;DHT22;11649;48.090;9.754;2023-04-06T05:21:57;0.90;99.90
22966;DHT22;11649;48.090;9.754;2023-04-06T05:24:23;0.90;99.90
22966;DHT22;11649;48.090;9.754;2023-04-06T05:26:50;0.90;99.90
22966;DHT22;11649;48.090;9.754;2023-04-06T05:29:18;0.90;99.90
22966;DHT22;11649;48.090;9.754;2023-04-06T05:31:45;0.90;99.90
22966;DHT22;11649;48.090;9.754;2023-04-06T05:34:12;0.70;99.90
22966;DHT22;11649;48.090;9.754;2023-04-06T05:36:39;0.70;99.90
22966;DHT22;11649;48.090;9.754;2023-04-06T05:39:07;0.80;99.90
22966;DHT22;11649;48.090;9.754;2023-04-06T05:41:34;0.80;99.90
22966;DHT22;11649;48.090;9.754;2023-04-06T05:44:01;0.80;99.90
22966;DHT22;11649;48.090;9.754;2023-04-06T05:46:27;0.80;99.90
22966;DHT22;11649;48.090;9.754;2023-04-06T05:48:54;0.80;99.90
22966;DHT22;11649;48.090;9.754;2023-04-06T05:51:21;0.90;99.90
22966;DHT22;11649;48.090;9.754;2023-04-06T05:53:48;0.90;99.90
22966;DHT22;11649;48.090;9.754;2023-04-06T05:56:15;1.00;99.90
22966;DHT22;11649;48.090;9.754;2023-04-06T05:58:42;1.00;99.90
22966;DHT22;11649;48.090;9.754;2023-04-06T06:01:08;1.10;99.90
22966;DHT22;11649;48.090;9.754;2023-04-06T06:03:36;1.10;99.90
22966;DHT22;11649;48.090;9.754;2023-04-06T06:06:04;1.20;99.90
22966;DHT22;11649;48.090;9.754;2023-04-06T06:08:31;1.20;99.90
22966;DHT22;11649;48.090;9.754;2023-04-06T06:10:58;1.30;99.90
22966;DHT22;11649;48.090;9.754;2023-04-06T06:13:25;1.40;99.90
22966;DHT22;11649;48.090;9.754;2023-04-06T06:15:51;1.60;99.90
22966;DHT22;11649;48.090;9.754;2023-04-06T06:18:18;1.60;99.90
22966;DHT22;11649;48.090;9.754;2023-04-06T06:20:45;1.60;99.90
22966;DHT22;11649;48.090;9.754;2023-04-06T06:23:12;1.50;99.90
22966;DHT22;11649;48.090;9.754;2023-04-06T06:25:39;1.40;99.90
22966;DHT22;11649;48.090;9.754;2023-04-06T06:28:05;1.40;99.90
22966;DHT22;11649;48.090;9.754;2023-04-06T06:30:32;1.50;99.90
22966;DHT22;11649;48.090;9.754;2023-04-06T06:32:59;1.70;99.90
22966;DHT22;11649;48.090;9.754;2023-04-06T06:35:26;1.80;99.90
22966;DHT22;11649;48.090;9.754;2023-04-06T06:37:53;1.80;99.90
22966;DHT22;11649;48.090;9.754;2023-04-06T06:40:19;1.90;99.90
22966;DHT22;11649;48.090;9.754;2023-04-06T06:42:50;2.10;99.90
22966;DHT22;11649;48.090;9.754;2023-04-06T06:45:18;2.20;99.90
22966;DHT22;11649;48.090;9.754;2023-04-06T06:47:45;2.20;99.90
22966;DHT22;11649;48.090;9.754;2023-04-06T06:50:12;2.40;99.90
22966;DHT22;11649;48.090;9.754;2023-04-06T06:52:39;2.40;99.90
22966;DHT22;11649;48.090;9.754;2023-04-06T06:55:07;2.40;99.90
22966;DHT22;11649;48.090;9.754;2023-04-06T06:57:34;2.50;99.90
22966;DHT22;11649;48.090;9.754;2023-04-06T07:00:00;2.70;99.90
22966;DHT22;11649;48.090;9.754;2023-04-06T07:02:27;2.60;99.90
22966;DHT22;11649;48.090;9.754;2023-04-06T07:04:54;2.80;99.90
22966;DHT22;11649;48.090;9.754;2023-04-06T07:07:21;2.90;99.90
22966;DHT22;11649;48.090;9.754;2023-04-06T07:09:48;3.10;99.10
22966;DHT22;11649;48.090;9.754;2023-04-06T07:12:15;3.40;96.20
22966;DHT22;11649;48.090;9.754;2023-04-06T07:14:43;3.60;96.30
22966;DHT22;11649;48.090;9.754;2023-04-06T07:17:09;3.70;95.10
22966;DHT22;11649;48.090;9.754;2023-04-06T07:19:36;3.70;95.70
22966;DHT22;11649;48.090;9.754;2023-04-06T07:22:03;3.80;95.50
22966;DHT22;11649;48.090;9.754;2023-04-06T07:24:31;3.80;95.20
22966;DHT22;11649;48.090;9.754;2023-04-06T07:26:59;3.80;93.50
22966;DHT22;11649;48.090;9.754;2023-04-06T07:29:27;3.90;95.30
22966;DHT22;11649;48.090;9.754;2023-04-06T07:31:54;3.90;95.20
22966;DHT22;11649;48.090;9.754;2023-04-06T07:34:21;4.00;92.20
22966;DHT22;11649;48.090;9.754;2023-04-06T07:36:48;4.00;94.50
22966;DHT22;11649;48.090;9.754;2023-04-06T07:39:15;4.20;91.20
22966;DHT22;11649;48.090;9.754;2023-04-06T07:41:42;4.30;91.10
22966;DHT22;11649;48.090;9.754;2023-04-06T07:44:08;4.40;90.70
22966;DHT22;11649;48.090;9.754;2023-04-06T07:46:35;4.40;90.00
22966;DHT22;11649;48.090;9.754;2023-04-06T07:49:02;4.40;84.50
22966;DHT22;11649;48.090;9.754;2023-04-06T07:51:29;4.50;85.40
22966;DHT22;11649;48.090;9.754;2023-04-06T07:53:57;4.50;82.30
22966;DHT22;11649;48.090;9.754;2023-04-06T07:56:23;4.50;81.20
22966;DHT22;11649;48.090;9.754;2023-04-06T07:58:51;4.60;80.00
22966;DHT22;11649;48.090;9.754;2023-04-06T08:01:20;4.70;77.60
22966;DHT22;11649;48.090;9.754;2023-04-06T08:03:46;4.70;76.80
22966;DHT22;11649;48.090;9.754;2023-04-06T08:06:14;4.80;79.00
22966;DHT22;11649;48.090;9.754;2023-04-06T08:08:41;4.90;78.90
22966;DHT22;11649;48.090;9.754;2023-04-06T08:11:09;5.00;76.70
22966;DHT22;11649;48.090;9.754;2023-04-06T08:13:36;5.00;81.00
22966;DHT22;11649;48.090;9.754;2023-04-06T08:16:02;5.10;81.60
22966;DHT22;11649;48.090;9.754;2023-04-06T08:18:29;5.20;81.80
22966;DHT22;11649;48.090;9.754;2023-04-06T08:20:56;5.40;84.80
22966;DHT22;11649;48.090;9.754;2023-04-06T08:23:23;5.50;78.50
22966;DHT22;11649;48.090;9.754;2023-04-06T08:25:50;5.60;80.40
22966;DHT22;11649;48.090;9.754;2023-04-06T08:28:19;5.70;77.20
22966;DHT22;11649;48.090;9.754;2023-04-06T08:30:46;5.80;78.70
22966;DHT22;11649;48.090;9.754;2023-04-06T08:33:13;5.90;82.60
22966;DHT22;11649;48.090;9.754;2023-04-06T08:35:40;5.80;78.00
22966;DHT22;11649;48.090;9.754;2023-04-06T08:38:07;5.90;83.90
22966;DHT22;11649;48.090;9.754;2023-04-06T08:40:38;6.00;78.40
22966;DHT22;11649;48.090;9.754;2023-04-06T08:43:08;6.30;79.00
22966;DHT22;11649;48.090;9.754;2023-04-06T08:45:36;6.50;82.10
22966;DHT22;11649;48.090;9.754;2023-04-06T08:48:05;6.70;83.40
22966;DHT22;11649;48.090;9.754;2023-04-06T08:50:33;6.90;84.10
22966;DHT22;11649;48.090;9.754;2023-04-06T08:53:01;7.00;75.70
22966;DHT22;11649;48.090;9.754;2023-04-06T08:55:27;7.20;78.60
22966;DHT22;11649;48.090;9.754;2023-04-06T08:57:55;7.30;73.60
22966;DHT22;11649;48.090;9.754;2023-04-06T09:00:22;7.30;70.60
22966;DHT22;11649;48.090;9.754;2023-04-06T09:02:53;7.50;74.40
22966;DHT22;11649;48.090;9.754;2023-04-06T09:05:24;7.60;75.00
22966;DHT22;11649;48.090;9.754;2023-04-06T09:07:51;7.50;76.20
22966;DHT22;11649;48.090;9.754;2023-04-06T09:10:18;7.90;74.50
22966;DHT22;11649;48.090;9.754;2023-04-06T09:12:45;8.10;76.60
22966;DHT22;11649;48.090;9.754;2023-04-06T09:15:22;8.30;73.30
22966;DHT22;11649;48.090;9.754;2023-04-06T09:17:50;8.60;65.10
22966;DHT22;11649;48.090;9.754;2023-04-06T09:20:25;8.30;65.40
22966;DHT22;11649;48.090;9.754;2023-04-06T09:22:54;8.20;66.30
22966;DHT22;11649;48.090;9.754;2023-04-06T09:25:22;8.20;63.20
22966;DHT22;11649;48.090;9.754;2023-04-06T09:27:59;8.00;64.40
22966;DHT22;11649;48.090;9.754;2023-04-06T09:30:26;8.00;66.30
22966;DHT22;11649;48.090;9.754;2023-04-06T09:32:55;8.40;64.70
22966;DHT22;11649;48.090;9.754;2023-04-06T09:35:23;8.20;65.20
22966;DHT22;11649;48.090;9.754;2023-04-06T09:37:51;8.30;65.90
22966;DHT22;11649;48.090;9.754;2023-04-06T09:40:18;8.40;64.50
22966;DHT22;11649;48.090;9.754;2023-04-06T09:42:46;8.80;65.80
22966;DHT22;11649;48.090;9.754;2023-04-06T09:45:14;9.20;66.00
22966;DHT22;11649;48.090;9.754;2023-04-06T09:47:45;9.50;63.20
22966;DHT22;11649;48.090;9.754;2023-04-06T09:50:13;9.80;61.20
22966;DHT22;11649;48.090;9.754;2023-04-06T09:52:48;9.70;57.40
22966;DHT22;11649;48.090;9.754;2023-04-06T09:55:31;9.20;57.90
22966;DHT22;11649;48.090;9.754;2023-04-06T09:58:05;8.70;60.10
22966;DHT22;11649;48.090;9.754;2023-04-06T10:00:34;8.40;62.10
22966;DHT22;11649;48.090;9.754;2023-04-06T10:03:34;8.50;62.50
22966;DHT22;11649;48.090;9.754;2023-04-06T10:06:10;8.50;65.30
22966;DHT22;11649;48.090;9.754;2023-04-06T10:08:39;8.50;64.40
22966;DHT22;11649;48.090;9.754;2023-04-06T10:11:09;8.50;60.70
22966;DHT22;11649;48.090;9.754;2023-04-06T10:13:38;8.60;61.30
22966;DHT22;11649;48.090;9.754;2023-04-06T10:16:06;8.60;63.10
22966;DHT22;11649;48.090;9.754;2023-04-06T10:18:34;8.60;63.60
22966;DHT22;11649;48.090;9.754;2023-04-06T10:21:06;8.50;67.10
22966;DHT22;11649;48.090;9.754;2023-04-06T10:23:41;8.50;63.50
22966;DHT22;11649;48.090;9.754;2023-04-06T10:26:14;8.40;65.60
22966;DHT22;11649;48.090;9.754;2023-04-06T10:28:44;8.60;64.60
22966;DHT22;11649;48.090;9.754;2023-04-06T10:31:12;8.60;64.70
22966;DHT22;11649;48.090;9.754;2023-04-06T10:33:38;8.70;63.20
22966;DHT22;11649;48.090;9.754;2023-04-06T10:36:14;8.80;65.00
22966;DHT22;11649;48.090;9.754;2023-04-06T10:38:42;8.80;64.40
22966;DHT22;11649;48.090;9.754;2023-04-06T10:41:10;9.00;66.40
22966;DHT22;11649;48.090;9.754;2023-04-06T10:43:38;9.00;66.00
22966;DHT22;11649;48.090;9.754;2023-04-06T10:46:07;9.10;63.10
22966;DHT22;11649;48.090;9.754;2023-04-06T10:48:42;9.20;62.90
22966;DHT22;11649;48.090;9.754;2023-04-06T10:51:11;9.30;60.40
22966;DHT22;11649;48.090;9.754;2023-04-06T10:53:41;8.70;56.40
22966;DHT22;11649;48.090;9.754;2023-04-06T10:56:13;8.70;57.60
22966;DHT22;11649;48.090;9.754;2023-04-06T10:58:48;8.90;61.50
22966;DHT22;11649;48.090;9.754;2023-04-06T11:01:19;9.30;57.80
22966;DHT22;11649;48.090;9.754;2023-04-06T11:03:49;9.40;62.30
22966;DHT22;11649;48.090;9.754;2023-04-06T11:06:28;9.30;59.70
22966;DHT22;11649;48.090;9.754;2023-04-06T11:08:57;9.10;61.00
22966;DHT22;11649;48.090;9.754;2023-04-06T11:11:25;9.70;57.40
22966;DHT22;11649;48.090;9.754;2023-04-06T11:13:55;10.30;60.50
22966;DHT22;11649;48.090;9.754;2023-04-06T11:16:23;10.30;60.40
22966;DHT22;11649;48.090;9.754;2023-04-06T11:18:57;10.30;57.80
22966;DHT22;11649;48.090;9.754;2023-04-06T11:24:10;10.60;56.40
22966;DHT22;11649;48.090;9.754;2023-04-06T11:26:43;10.80;54.40
22966;DHT22;11649;48.090;9.754;2023-04-06T11:29:12;10.60;58.40
22966;DHT22;11649;48.090;9.754;2023-04-06T11:31:40;10.30;57.00
22966;DHT22;11649;48.090;9.754;2023-04-06T11:34:21;10.00;56.80
22966;DHT22;11649;48.090;9.754;2023-04-06T11:36:54;9.90;56.00
22966;DHT22;11649;48.090;9.754;2023-04-06T11:39:22;9.70;57.70
22966;DHT22;11649;48.090;9.754;2023-04-06T11:41:51;9.90;59.70
22966;DHT22;11649;48.090;9.754;2023-04-06T11:44:39;10.00;58.80
22966;DHT22;11649;48.090;9.754;2023-04-06T11:47:08;10.00;57.60
22966;DHT22;11649;48.090;9.754;2023-04-06T11:49:40;10.20;55.20
22966;DHT22;11649;48.090;9.754;2023-04-06T11:52:22;10.20;53.10
22966;DHT22;11649;48.090;9.754;2023-04-06T11:54:51;10.50;54.90
22966;DHT22;11649;48.090;9.754;2023-04-06T11:57:20;10.90;55.50
22966;DHT22;11649;48.090;9.754;2023-04-06T11:59:47;11.80;55.60
22966;DHT22;11649;48.090;9.754;2023-04-06T12:02:14;12.10;53.80
22966;DHT22;11649;48.090;9.754;2023-04-06T12:04:41;12.60;55.00
22966;DHT22;11649;48.090;9.754;2023-04-06T12:07:07;12.60;53.70
22966;DHT22;11649;48.090;9.754;2023-04-06T12:09:34;12.40;53.80
22966;DHT22;11649;48.090;9.754;2023-04-06T12:12:03;12.50;52.70
22966;DHT22;11649;48.090;9.754;2023-04-06T12:14:30;12.50;52.10
22966;DHT22;11649;48.090;9.754;2023-04-06T12:16:57;12.80;52.40
22966;DHT22;11649;48.090;9.754;2023-04-06T12:19:24;12.30;54.10
22966;DHT22;11649;48.090;9.754;2023-04-06T12:21:53;13.00;50.00
22966;DHT22;11649;48.090;9.754;2023-04-06T12:24:21;13.00;51.60
22966;DHT22;11649;48.090;9.754;2023-04-06T12:26:48;12.70;50.20
22966;DHT22;11649;48.090;9.754;2023-04-06T12:29:19;13.10;49.40
22966;DHT22;11649;48.090;9.754;2023-04-06T12:31:46;13.10;54.00
22966;DHT22;11649;48.090;9.754;2023-04-06T12:34:13;12.30;51.20
22966;DHT22;11649;48.090;9.754;2023-04-06T12:36:39;12.50;54.70
22966;DHT22;11649;48.090;9.754;2023-04-06T12:39:06;12.70;55.10
22966;DHT22;11649;48.090;9.754;2023-04-06T12:41:33;12.70;48.80
22966;DHT22;11649;48.090;9.754;2023-04-06T12:44:01;12.90;44.90
22966;DHT22;11649;48.090;9.754;2023-04-06T12:46:29;13.00;42.50
22966;DHT22;11649;48.090;9.754;2023-04-06T12:48:59;12.80;41.00
22966;DHT22;11649;48.090;9.754;2023-04-06T12:51:29;12.70;43.00
22966;DHT22;11649;48.090;9.754;2023-04-06T12:53:57;12.60;44.00
22966;DHT22;11649;48.090;9.754;2023-04-06T12:56:25;12.60;43.20
22966;DHT22;11649;48.090;9.754;2023-04-06T12:58:52;12.70;41.80
22966;DHT22;11649;48.090;9.754;2023-04-06T13:01:19;12.50;43.40
22966;DHT22;11649;48.090;9.754;2023-04-06T13:03:46;12.60;41.10
22966;DHT22;11649;48.090;9.754;2023-04-06T13:06:13;12.60;42.20
22966;DHT22;11649;48.090;9.754;2023-04-06T13:08:42;12.70;43.30
22966;DHT22;11649;48.090;9.754;2023-04-06T13:11:09;12.50;42.90
22966;DHT22;11649;48.090;9.754;2023-04-06T13:13:37;12.40;42.70
22966;DHT22;11649;48.090;9.754;2023-04-06T13:16:08;12.60;45.60
22966;DHT22;11649;48.090;9.754;2023-04-06T13:18:35;13.00;48.70
22966;DHT22;11649;48.090;9.754;2023-04-06T13:21:06;13.40;42.90
22966;DHT22;11649;48.090;9.754;2023-04-06T13:23:34;13.80;43.70
22966;DHT22;11649;48.090;9.754;2023-04-06T13:26:07;13.90;39.60
22966;DHT22;11649;48.090;9.754;2023-04-06T13:28:36;13.60;42.40
22966;DHT22;11649;48.090;9.754;2023-04-06T13:31:05;13.60;39.40
22966;DHT22;11649;48.090;9.754;2023-04-06T13:33:32;13.80;37.60
22966;DHT22;11649;48.090;9.754;2023-04-06T13:35:59;13.60;38.80
22966;DHT22;11649;48.090;9.754;2023-04-06T13:38:26;13.90;41.10
22966;DHT22;11649;48.090;9.754;2023-04-06T13:40:53;14.40;41.30
22966;DHT22;11649;48.090;9.754;2023-04-06T13:43:20;15.60;43.30
22966;DHT22;11649;48.090;9.754;2023-04-06T13:45:51;16.20;39.10
22966;DHT22;11649;48.090;9.754;2023-04-06T13:48:18;16.70;39.70
22966;DHT22;11649;48.090;9.754;2023-04-06T13:50:45;16.90;35.20
22966;DHT22;11649;48.090;9.754;2023-04-06T13:53:12;17.00;40.30
22966;DHT22;11649;48.090;9.754;2023-04-06T13:55:39;16.20;37.90
22966;DHT22;11649;48.090;9.754;2023-04-06T13:58:06;15.90;42.20
22966;DHT22;11649;48.090;9.754;2023-04-06T14:00:33;15.90;38.00
22966;DHT22;11649;48.090;9.754;2023-04-06T14:03:00;16.70;36.60
22966;DHT22;11649;48.090;9.754;2023-04-06T14:05:33;16.70;35.70
22966;DHT22;11649;48.090;9.754;2023-04-06T14:08:01;17.80;43.00
22966;DHT22;11649;48.090;9.754;2023-04-06T14:10:28;19.20;39.70
22966;DHT22;11649;48.090;9.754;2023-04-06T14:12:55;20.20;38.90
22966;DHT22;11649;48.090;9.754;2023-04-06T14:15:22;18.70;31.90
22966;DHT22;11649;48.090;9.754;2023-04-06T14:17:50;18.10;41.50
22966;DHT22;11649;48.090;9.754;2023-04-06T14:20:18;17.90;38.20
22966;DHT22;11649;48.090;9.754;2023-04-06T14:22:45;17.70;41.40
22966;DHT22;11649;48.090;9.754;2023-04-06T14:25:13;17.20;35.00
22966;DHT22;11649;48.090;9.754;2023-04-06T14:27:40;15.90;36.30
22966;DHT22;11649;48.090;9.754;2023-04-06T14:30:07;15.60;36.80
22966;DHT22;11649;48.090;9.754;2023-04-06T14:32:34;15.00;38.50
22966;DHT22;11649;48.090;9.754;2023-04-06T14:35:04;16.40;40.70
22966;DHT22;11649;48.090;9.754;2023-04-06T14:37:33;16.30;44.40
22966;DHT22;11649;48.090;9.754;2023-04-06T14:40:00;17.40;42.80
22966;DHT22;11649;48.090;9.754;2023-04-06T14:42:27;19.00;42.30
22966;DHT22;11649;48.090;9.754;2023-04-06T14:44:53;20.20;39.70
22966;DHT22;11649;48.090;9.754;2023-04-06T14:47:20;20.40;36.10
22966;DHT22;11649;48.090;9.754;2023-04-06T14:49:51;19.80;32.00
22966;DHT22;11649;48.090;9.754;2023-04-06T14:52:18;18.10;37.20
22966;DHT22;11649;48.090;9.754;2023-04-06T14:54:44;16.60;38.00
22966;DHT22;11649;48.090;9.754;2023-04-06T14:57:11;15.80;37.50
22966;DHT22;11649;48.090;9.754;2023-04-06T14:59:38;15.10;39.30
22966;DHT22;11649;48.090;9.754;2023-04-06T15:02:06;14.40;37.90
22966;DHT22;11649;48.090;9.754;2023-04-06T15:04:36;14.00;40.60
22966;DHT22;11649;48.090;9.754;2023-04-06T15:07:03;14.00;41.60
22966;DHT22;11649;48.090;9.754;2023-04-06T15:09:30;14.00;41.90
22966;DHT22;11649;48.090;9.754;2023-04-06T15:11:57;14.20;43.20
22966;DHT22;11649;48.090;9.754;2023-04-06T15:14:24;14.20;42.90
22966;DHT22;11649;48.090;9.754;2023-04-06T15:16:51;14.00;42.30
22966;DHT22;11649;48.090;9.754;2023-04-06T15:19:18;13.90;42.10
22966;DHT22;11649;48.090;9.754;2023-04-06T15:21:45;13.60;42.50
22966;DHT22;11649;48.090;9.754;2023-04-06T15:24:11;13.60;42.20
22966;DHT22;11649;48.090;9.754;2023-04-06T15:26:38;13.00;42.40
22966;DHT22;11649;48.090;9.754;2023-04-06T15:29:05;13.00;43.70
22966;DHT22;11649;48.090;9.754;2023-04-06T15:31:32;12.90;43.50
22966;DHT22;11649;48.090;9.754;2023-04-06T15:34:07;12.80;41.70
22966;DHT22;11649;48.090;9.754;2023-04-06T15:36:37;12.80;40.60
22966;DHT22;11649;48.090;9.754;2023-04-06T15:39:06;12.50;42.50
22966;DHT22;11649;48.090;9.754;2023-04-06T15:41:35;12.50;42.40
22966;DHT22;11649;48.090;9.754;2023-04-06T15:44:02;12.60;40.20
22966;DHT22;11649;48.090;9.754;2023-04-06T15:46:30;12.30;41.60
22966;DHT22;11649;48.090;9.754;2023-04-06T15:48:57;12.20;44.10